Time;durP1;ratioP1;P1;durP2;ratioP2;P2;SDS_P1;SDS_P2;PMS_P1;PMS_P2;Temp;Humidity;BMP_temperature;BMP_pressure;BME280_temperature;BME280_humidity;BME280_pressure;Samples;Min_cycle;Max_cycle;Signal;HPM_P1;HPM_P2
2023/06/11 00:01:14;;;;;;;;;;;25.10;59.50;;;;;;5064112;28;42979;-81
2023/06/11 00:03:40;;;;;;;;;;;25.10;60.00;;;;;;5063584;28;42962;-84
2023/06/11 00:06:06;;;;;;;;;;;25.10;59.60;;;;;;5064018;28;42972;-81
2023/06/11 00:08:32;;;;;;;;;;;25.10;59.50;;;;;;5064157;28;43043;-80
2023/06/11 00:10:57;;;;;;;;;;;25.10;59.60;;;;;;5064088;28;42986;-81
2023/06/11 00:13:23;;;;;;;;;;;25.10;59.60;;;;;;5063303;28;43590;-81
2023/06/11 00:15:48;;;;;;;;;;;25.10;59.70;;;;;;5063468;28;43049;-84
2023/06/11 00:18:14;;;;;;;;;;;25.10;59.70;;;;;;5063348;28;42998;-81
2023/06/11 00:20:41;;;;;;;;;;;25.10;59.70;;;;;;5063719;28;43045;-82
2023/06/11 00:23:07;;;;;;;;;;;25.10;59.70;;;;;;5063560;28;43395;-80
2023/06/11 00:25:32;;;;;;;;;;;25.10;59.70;;;;;;5063685;28;42952;-80
2023/06/11 00:27:58;;;;;;;;;;;25.10;59.60;;;;;;5064132;28;42840;-86
2023/06/11 00:30:24;;;;;;;;;;;25.10;59.60;;;;;;5063453;28;43035;-82
2023/06/11 00:32:49;;;;;;;;;;;25.10;59.60;;;;;;5063684;28;43039;-82
2023/06/11 00:35:15;;;;;;;;;;;25.10;59.70;;;;;;5063829;28;42979;-84
2023/06/11 00:37:40;;;;;;;;;;;25.10;60.80;;;;;;5063216;28;43514;-83
2023/06/11 00:40:06;;;;;;;;;;;25.10;59.60;;;;;;5063261;28;43009;-87
2023/06/11 00:42:34;;;;;;;;;;;25.10;59.60;;;;;;5063682;28;42994;-84
2023/06/11 00:45:03;;;;;;;;;;;25.10;60.10;;;;;;5061775;28;43165;-84
2023/06/11 00:47:29;;;;;;;;;;;25.10;60.20;;;;;;5063632;28;42869;-83
2023/06/11 00:49:55;;;;;;;;;;;25.10;59.60;;;;;;5063516;28;42986;-89
2023/06/11 00:52:21;;;;;;;;;;;25.10;59.60;;;;;;5063396;28;43936;-84
2023/06/11 00:54:47;;;;;;;;;;;25.10;60.00;;;;;;5063407;28;43082;-89
2023/06/11 00:57:13;;;;;;;;;;;25.10;59.50;;;;;;5063063;28;42962;-86
2023/06/11 00:59:39;;;;;;;;;;;25.10;60.10;;;;;;5063904;28;42975;-82
2023/06/11 01:02:08;;;;;;;;;;;25.10;59.50;;;;;;5062900;28;42848;-82
2023/06/11 01:04:35;;;;;;;;;;;25.10;59.50;;;;;;5062629;28;43151;-81
2023/06/11 01:07:01;;;;;;;;;;;25.10;59.50;;;;;;5063442;28;43041;-88
2023/06/11 01:09:28;;;;;;;;;;;25.10;60.10;;;;;;5063993;28;43108;-82
2023/06/11 01:11:58;;;;;;;;;;;25.10;60.00;;;;;;5063179;28;43874;-82
2023/06/11 01:14:23;;;;;;;;;;;25.10;60.50;;;;;;5063545;28;43139;-89
2023/06/11 01:16:54;;;;;;;;;;;25.10;59.50;;;;;;5063422;28;43059;-87
2023/06/11 01:19:40;;;;;;;;;;;25.10;60.00;;;;;;5063427;28;42873;-82
2023/06/11 01:22:15;;;;;;;;;;;25.10;59.60;;;;;;5063511;28;42772;-85
2023/06/11 01:24:53;;;;;;;;;;;25.10;60.00;;;;;;5062916;28;43031;-87
2023/06/11 01:27:21;;;;;;;;;;;25.10;59.90;;;;;;5065953;28;43410;-84
2023/06/11 01:29:48;;;;;;;;;;;25.10;59.50;;;;;;5048542;28;43077;-81
2023/06/11 01:32:15;;;;;;;;;;;25.10;59.50;;;;;;5066150;28;44437;-84
2023/06/11 01:34:41;;;;;;;;;;;25.10;59.50;;;;;;5066828;28;42757;-87
2023/06/11 01:37:09;;;;;;;;;;;25.10;59.50;;;;;;5066184;28;45052;-83
2023/06/11 01:39:34;;;;;;;;;;;25.10;59.50;;;;;;5059055;28;42915;-82
2023/06/11 01:42:00;;;;;;;;;;;25.10;59.50;;;;;;5066549;28;43014;-81
2023/06/11 01:44:26;;;;;;;;;;;25.10;59.40;;;;;;5066814;28;43033;-81
2023/06/11 01:46:52;;;;;;;;;;;25.10;60.10;;;;;;5034859;28;44370;-87
2023/06/11 01:49:17;;;;;;;;;;;25.10;60.00;;;;;;5079022;28;42850;-79
2023/06/11 01:51:43;;;;;;;;;;;25.10;59.80;;;;;;5053599;28;43442;-79
2023/06/11 01:54:08;;;;;;;;;;;25.10;59.80;;;;;;5066200;28;42919;-82
2023/06/11 01:56:34;;;;;;;;;;;25.10;60.00;;;;;;5065680;28;42985;-82
2023/06/11 01:59:00;;;;;;;;;;;25.10;59.90;;;;;;5066247;28;43010;-88
2023/06/11 02:01:28;;;;;;;;;;;25.10;59.30;;;;;;5065734;28;43148;-82
2023/06/11 02:03:54;;;;;;;;;;;25.10;59.30;;;;;;5047412;28;43210;-84
2023/06/11 02:06:20;;;;;;;;;;;25.10;59.80;;;;;;5065797;28;44364;-87
2023/06/11 02:08:45;;;;;;;;;;;25.10;59.30;;;;;;5065986;28;43016;-80
2023/06/11 02:11:11;;;;;;;;;;;25.10;59.70;;;;;;5063866;28;43566;-83
2023/06/11 02:13:36;;;;;;;;;;;25.10;59.20;;;;;;5066463;28;42850;-86
2023/06/11 02:16:02;;;;;;;;;;;25.10;59.10;;;;;;5066626;28;43314;-83
2023/06/11 02:18:27;;;;;;;;;;;25.10;59.50;;;;;;5066290;28;43091;-87
2023/06/11 02:20:53;;;;;;;;;;;25.10;59.60;;;;;;5062595;28;42877;-83
2023/06/11 02:23:19;;;;;;;;;;;25.10;59.50;;;;;;5065218;28;42959;-82
2023/06/11 02:25:44;;;;;;;;;;;25.10;59.50;;;;;;5064312;28;42911;-82
2023/06/11 02:28:10;;;;;;;;;;;25.10;59.50;;;;;;5065794;28;43028;-84
2023/06/11 02:30:35;;;;;;;;;;;25.00;58.90;;;;;;5065928;28;42926;-86
2023/06/11 02:33:01;;;;;;;;;;;25.10;59.00;;;;;;5061563;28;43247;-85
2023/06/11 02:35:26;;;;;;;;;;;25.10;58.90;;;;;;5048612;28;42889;-82
2023/06/11 02:37:52;;;;;;;;;;;25.10;58.90;;;;;;5055409;28;42919;-87
2023/06/11 02:40:17;;;;;;;;;;;25.10;59.40;;;;;;5047425;28;42869;-82
2023/06/11 02:42:43;;;;;;;;;;;25.10;59.40;;;;;;5055278;28;43101;-86
2023/06/11 02:45:09;;;;;;;;;;;25.10;59.40;;;;;;5064417;28;42836;-82
2023/06/11 02:47:34;;;;;;;;;;;25.10;59.30;;;;;;5066155;28;42828;-84
2023/06/11 02:50:00;;;;;;;;;;;25.10;58.80;;;;;;5064936;28;42993;-82
2023/06/11 02:52:25;;;;;;;;;;;25.10;59.40;;;;;;5054105;28;44031;-87
2023/06/11 02:54:51;;;;;;;;;;;25.10;59.30;;;;;;5065526;28;43735;-88
2023/06/11 02:57:16;;;;;;;;;;;25.10;58.90;;;;;;5065375;28;43540;-82
2023/06/11 02:59:42;;;;;;;;;;;25.10;59.50;;;;;;5062769;28;43025;-81
2023/06/11 03:02:08;;;;;;;;;;;;;;;;;;5062910;28;42975;-81
2023/06/11 03:04:33;;;;;;;;;;;27.10;60.50;;;;;;5063600;28;43888;-82
2023/06/11 03:06:58;;;;;;;;;;;25.00;58.80;;;;;;5065582;28;42921;-82
2023/06/11 03:09:24;;;;;;;;;;;25.00;58.80;;;;;;5060917;28;42804;-88
2023/06/11 03:11:52;;;;;;;;;;;25.00;58.80;;;;;;5071181;28;42832;-84
2023/06/11 03:14:20;;;;;;;;;;;25.10;58.90;;;;;;5065441;28;44081;-83
2023/06/11 03:16:46;;;;;;;;;;;25.00;59.50;;;;;;5065957;28;43050;-88
2023/06/11 03:19:12;;;;;;;;;;;25.00;58.90;;;;;;5064580;28;43313;-82
2023/06/11 03:21:37;;;;;;;;;;;25.10;58.90;;;;;;5062555;28;43043;-83
2023/06/11 03:24:03;;;;;;;;;;;25.10;59.40;;;;;;5045866;28;44708;-82
2023/06/11 03:26:28;;;;;;;;;;;25.00;59.30;;;;;;5064424;28;42968;-85
2023/06/11 03:28:54;;;;;;;;;;;25.00;58.80;;;;;;5064397;28;42920;-85
2023/06/11 03:31:19;;;;;;;;;;;25.00;58.80;;;;;;5062895;28;43371;-82
2023/06/11 03:33:45;;;;;;;;;;;25.10;59.40;;;;;;5063846;28;43378;-85
2023/06/11 03:36:10;;;;;;;;;;;25.00;58.80;;;;;;5046789;28;42798;-81
2023/06/11 03:38:36;;;;;;;;;;;25.00;58.80;;;;;;5064775;28;42954;-85
2023/06/11 03:41:01;;;;;;;;;;;25.10;58.90;;;;;;5064439;28;43100;-81
2023/06/11 03:43:27;;;;;;;;;;;25.00;58.80;;;;;;5052714;28;43586;-83
2023/06/11 03:45:52;;;;;;;;;;;25.00;58.80;;;;;;5065113;28;42777;-82
2023/06/11 03:48:18;;;;;;;;;;;25.00;58.70;;;;;;5046751;28;43836;-82
2023/06/11 03:50:43;;;;;;;;;;;25.00;59.40;;;;;;5064391;28;42930;-83
2023/06/11 03:53:09;;;;;;;;;;;25.00;58.80;;;;;;5045490;28;45549;-84
2023/06/11 03:55:34;;;;;;;;;;;25.00;58.90;;;;;;5063851;28;42997;-83
2023/06/11 03:58:00;;;;;;;;;;;25.00;58.90;;;;;;5063569;28;43621;-87
2023/06/11 04:00:30;;;;;;;;;;;25.00;59.50;;;;;;5063740;28;42960;-82
2023/06/11 04:02:56;;;;;;;;;;;25.00;58.80;;;;;;5050839;28;43681;-86
2023/06/11 04:05:21;;;;;;;;;;;25.00;58.80;;;;;;5064545;28;42887;-83
2023/06/11 04:07:47;;;;;;;;;;;25.00;58.90;;;;;;5064416;28;43463;-86
2023/06/11 04:10:13;;;;;;;;;;;25.10;59.60;;;;;;5064008;28;42917;-82
2023/06/11 04:12:38;;;;;;;;;;;25.00;59.50;;;;;;5063858;28;43013;-81
2023/06/11 04:15:04;;;;;;;;;;;25.00;59.00;;;;;;5064429;28;42887;-85
2023/06/11 04:17:30;;;;;;;;;;;25.00;58.90;;;;;;5046031;28;44509;-82
2023/06/11 04:19:55;;;;;;;;;;;25.00;59.40;;;;;;5045897;28;42920;-83
2023/06/11 04:22:21;;;;;;;;;;;25.00;59.50;;;;;;5055146;28;43442;-83
2023/06/11 04:24:46;;;;;;;;;;;25.00;59.40;;;;;;5052038;28;43897;-84
2023/06/11 04:27:12;;;;;;;;;;;25.00;58.90;;;;;;5064111;28;43065;-80
2023/06/11 04:29:38;;;;;;;;;;;25.00;58.90;;;;;;5064097;28;42959;-86
2023/06/11 04:32:04;;;;;;;;;;;25.00;59.50;;;;;;5063996;28;43603;-86
2023/06/11 04:34:29;;;;;;;;;;;25.00;59.50;;;;;;5063904;28;42958;-81
2023/06/11 04:36:55;;;;;;;;;;;25.00;58.90;;;;;;5061949;28;42864;-83
2023/06/11 04:39:22;;;;;;;;;;;25.00;58.90;;;;;;5057468;28;42885;-82
2023/06/11 04:41:47;;;;;;;;;;;25.00;58.90;;;;;;5058390;28;42946;-87
2023/06/11 04:44:13;;;;;;;;;;;25.10;58.90;;;;;;5058012;28;42919;-83
2023/06/11 04:46:40;;;;;;;;;;;25.00;58.80;;;;;;5044847;28;44383;-85
2023/06/11 04:49:06;;;;;;;;;;;25.00;58.80;;;;;;5063721;28;43193;-85
2023/06/11 04:51:40;;;;;;;;;;;25.00;58.90;;;;;;5050228;28;43541;-84
2023/06/11 04:54:07;;;;;;;;;;;25.10;58.90;;;;;;5042371;28;43032;-90
2023/06/11 04:56:35;;;;;;;;;;;25.00;58.90;;;;;;5042932;28;44461;-83
2023/06/11 04:59:03;;;;;;;;;;;25.00;58.90;;;;;;5056404;28;43006;-83
2023/06/11 05:01:32;;;;;;;;;;;25.00;58.90;;;;;;5065243;28;43527;-85
2023/06/11 05:03:57;;;;;;;;;;;25.00;58.90;;;;;;5067252;28;42982;-85
2023/06/11 05:06:23;;;;;;;;;;;25.10;59.00;;;;;;5065154;28;43002;-86
2023/06/11 05:08:50;;;;;;;;;;;25.00;58.90;;;;;;5051706;28;42880;-84
2023/06/11 05:11:16;;;;;;;;;;;25.00;59.40;;;;;;5062397;28;44526;-85
2023/06/11 05:13:41;;;;;;;;;;;25.00;59.40;;;;;;5061292;28;43038;-83
2023/06/11 05:16:08;;;;;;;;;;;25.00;59.50;;;;;;5062983;28;43001;-82
2023/06/11 05:18:33;;;;;;;;;;;25.10;59.10;;;;;;5067247;28;43011;-83
2023/06/11 05:20:59;;;;;;;;;;;25.00;59.00;;;;;;5058726;28;43434;-83
2023/06/11 05:23:29;;;;;;;;;;;25.00;59.00;;;;;;5052562;28;43058;-83
2023/06/11 05:25:58;;;;;;;;;;;25.10;59.60;;;;;;5065914;28;44412;-83
2023/06/11 05:28:24;;;;;;;;;;;25.00;59.10;;;;;;5066929;28;43087;-83
2023/06/11 05:30:50;;;;;;;;;;;25.10;59.70;;;;;;5066531;28;43633;-82
2023/06/11 05:33:16;;;;;;;;;;;25.00;59.70;;;;;;5067223;28;42956;-85
2023/06/11 05:35:42;;;;;;;;;;;25.00;59.60;;;;;;5066839;28;42943;-83
2023/06/11 05:38:08;;;;;;;;;;;25.00;59.10;;;;;;5066061;28;43060;-82
2023/06/11 05:40:34;;;;;;;;;;;25.00;59.20;;;;;;5063853;28;43454;-81
2023/06/11 05:43:00;;;;;;;;;;;25.00;59.90;;;;;;5056264;28;43008;-79
2023/06/11 05:45:25;;;;;;;;;;;25.00;59.70;;;;;;5063938;28;44530;-81
2023/06/11 05:47:51;;;;;;;;;;;25.10;60.20;;;;;;5065446;28;42951;-81
2023/06/11 05:50:16;;;;;;;;;;;25.00;59.70;;;;;;5066779;28;43030;-81
2023/06/11 05:52:42;;;;;;;;;;;25.10;60.00;;;;;;5048404;28;42979;-83
2023/06/11 05:55:07;;;;;;;;;;;25.10;60.00;;;;;;5066441;28;43158;-81
2023/06/11 05:57:33;;;;;;;;;;;25.10;60.10;;;;;;5065570;28;43030;-84
2023/06/11 05:59:58;;;;;;;;;;;25.10;60.00;;;;;;5065902;28;42919;-81
2023/06/11 06:02:24;;;;;;;;;;;25.10;60.80;;;;;;5066026;28;42909;-83
2023/06/11 06:04:49;;;;;;;;;;;25.10;60.10;;;;;;5066350;28;43774;-84
2023/06/11 06:07:16;;;;;;;;;;;25.10;60.10;;;;;;5066351;28;42922;-81
2023/06/11 06:09:41;;;;;;;;;;;25.10;60.70;;;;;;5066375;28;44311;-83
2023/06/11 06:12:07;;;;;;;;;;;25.10;60.10;;;;;;5066152;28;42912;-82
2023/06/11 06:14:32;;;;;;;;;;;25.10;60.60;;;;;;5065699;28;42958;-83
2023/06/11 06:16:58;;;;;;;;;;;25.10;60.80;;;;;;5065923;28;42986;-85
2023/06/11 06:19:24;;;;;;;;;;;25.10;60.60;;;;;;5065796;28;42909;-81
2023/06/11 06:21:49;;;;;;;;;;;25.10;60.70;;;;;;5047128;28;43039;-82
2023/06/11 06:24:15;;;;;;;;;;;25.10;60.70;;;;;;5065566;28;43040;-84
2023/06/11 06:26:43;;;;;;;;;;;25.10;60.00;;;;;;5066087;28;42871;-83
2023/06/11 06:29:09;;;;;;;;;;;;;;;;;;5047748;28;45279;-84
2023/06/11 06:31:38;;;;;;;;;;;25.10;60.10;;;;;;5065591;28;42980;-83
2023/06/11 06:34:03;;;;;;;;;;;25.10;60.70;;;;;;5066036;28;43585;-83
2023/06/11 06:36:29;;;;;;;;;;;25.10;60.70;;;;;;5047538;28;42982;-81
2023/06/11 06:38:55;;;;;;;;;;;25.10;60.70;;;;;;5065559;28;43653;-81
2023/06/11 06:41:20;;;;;;;;;;;25.20;60.80;;;;;;5063564;28;43071;-80
2023/06/11 06:43:46;;;;;;;;;;;25.10;60.10;;;;;;5055239;28;42919;-82
2023/06/11 06:46:11;;;;;;;;;;;25.10;60.80;;;;;;5065644;28;43006;-82
2023/06/11 06:48:37;;;;;;;;;;;25.20;60.80;;;;;;5047618;28;43728;-81
2023/06/11 06:51:02;;;;;;;;;;;25.10;60.00;;;;;;5066048;28;43042;-82
2023/06/11 06:53:28;;;;;;;;;;;25.10;60.00;;;;;;5065667;28;43222;-81
2023/06/11 06:55:54;;;;;;;;;;;25.10;59.90;;;;;;5066472;28;43114;-84
2023/06/11 06:58:19;;;;;;;;;;;25.10;60.60;;;;;;5065910;28;43501;-84
2023/06/11 07:00:45;;;;;;;;;;;25.10;60.40;;;;;;5065999;28;42990;-83
2023/06/11 07:03:13;;;;;;;;;;;25.10;59.80;;;;;;5065587;28;42839;-85
2023/06/11 07:05:40;;;;;;;;;;;;;;;;;;5065529;28;43082;-84
2023/06/11 07:08:05;;;;;;;;;;;25.10;59.80;;;;;;5047364;28;44783;-81
2023/06/11 07:10:31;;;;;;;;;;;25.20;59.90;;;;;;5065478;28;42925;-82
2023/06/11 07:12:57;;;;;;;;;;;25.20;59.90;;;;;;5047995;28;44385;-85
2023/06/11 07:15:25;;;;;;;;;;;25.10;59.80;;;;;;5047108;28;42900;-85
2023/06/11 07:17:51;;;;;;;;;;;25.20;59.90;;;;;;5046952;28;44745;-82
2023/06/11 07:20:16;;;;;;;;;;;25.20;59.90;;;;;;5065072;28;42997;-85
2023/06/11 07:22:42;;;;;;;;;;;25.20;59.80;;;;;;5065049;28;43176;-84
2023/06/11 07:25:07;;;;;;;;;;;25.20;59.70;;;;;;5050631;28;43063;-83
2023/06/11 07:27:33;;;;;;;;;;;25.20;59.70;;;;;;5044899;28;43523;-82
2023/06/11 07:29:59;;;;;;;;;;;25.20;59.70;;;;;;5043916;28;43017;-81
2023/06/11 07:32:25;;;;;;;;;;;25.20;59.60;;;;;;5044635;28;43525;-83
2023/06/11 07:34:50;;;;;;;;;;;25.20;59.50;;;;;;5021213;28;42940;-82
2023/06/11 07:37:16;;;;;;;;;;;25.20;59.50;;;;;;5044275;28;43615;-83
2023/06/11 07:39:41;;;;;;;;;;;25.20;59.40;;;;;;5044589;28;42998;-85
2023/06/11 07:42:07;;;;;;;;;;;25.20;59.20;;;;;;5043998;28;42995;-83
2023/06/11 07:44:33;;;;;;;;;;;25.20;59.20;;;;;;5043811;28;42950;-82
2023/06/11 07:46:58;;;;;;;;;;;25.10;57.80;;;;;;5044548;28;43219;-81
2023/06/11 07:49:24;;;;;;;;;;;25.10;57.90;;;;;;5044033;28;42975;-85
2023/06/11 07:51:49;;;;;;;;;;;25.10;58.60;;;;;;5044536;28;43524;-81
2023/06/11 07:54:15;;;;;;;;;;;25.10;58.60;;;;;;5043850;28;42939;-84
2023/06/11 07:56:40;;;;;;;;;;;25.20;59.00;;;;;;5043995;28;43500;-81
2023/06/11 07:59:06;;;;;;;;;;;25.10;59.00;;;;;;5043884;28;42997;-83
2023/06/11 08:01:32;;;;;;;;;;;25.10;58.20;;;;;;5044903;28;43792;-84
2023/06/11 08:03:57;;;;;;;;;;;25.10;58.50;;;;;;5044693;28;43006;-81
2023/06/11 08:06:23;;;;;;;;;;;25.00;55.10;;;;;;5044520;28;43116;-79
2023/06/11 08:08:48;;;;;;;;;;;25.00;56.20;;;;;;5044344;28;43256;-82
2023/06/11 08:11:14;;;;;;;;;;;24.90;55.50;;;;;;5044438;28;42888;-81
2023/06/11 08:13:40;;;;;;;;;;;25.00;56.20;;;;;;5044047;28;42936;-81
2023/06/11 08:16:07;;;;;;;;;;;25.00;57.20;;;;;;5044144;28;44167;-80
2023/06/11 08:18:32;;;;;;;;;;;24.90;57.10;;;;;;5044576;28;42896;-80
2023/06/11 08:20:58;;;;;;;;;;;25.10;57.60;;;;;;5044082;28;43589;-81
2023/06/11 08:23:24;;;;;;;;;;;24.90;57.00;;;;;;5043987;28;43615;-80
2023/06/11 08:25:50;;;;;;;;;;;25.00;57.60;;;;;;5043828;28;42955;-81
2023/06/11 08:28:16;;;;;;;;;;;25.10;56.70;;;;;;5043747;28;43006;-80
2023/06/11 08:30:41;;;;;;;;;;;25.00;56.00;;;;;;5044358;28;42970;-82
2023/06/11 08:33:07;;;;;;;;;;;25.10;57.00;;;;;;5044259;28;43002;-80
2023/06/11 08:35:32;;;;;;;;;;;24.90;54.90;;;;;;5045641;28;42891;-80
2023/06/11 08:37:58;;;;;;;;;;;25.00;55.30;;;;;;5047620;28;43001;-80
2023/06/11 08:40:23;;;;;;;;;;;25.00;56.40;;;;;;5047585;28;43698;-80
2023/06/11 08:42:50;;;;;;;;;;;25.00;56.10;;;;;;5044587;28;42997;-88
2023/06/11 08:45:16;;;;;;;;;;;25.10;56.70;;;;;;5046700;28;43014;-83
2023/06/11 08:47:45;;;;;;;;;;;25.10;56.40;;;;;;5047395;28;42745;-82
2023/06/11 08:50:11;;;;;;;;;;;25.10;56.30;;;;;;5047477;28;42868;-86
2023/06/11 08:52:38;;;;;;;;;;;25.10;56.10;;;;;;5029075;28;43353;-82
2023/06/11 08:55:04;;;;;;;;;;;25.10;55.80;;;;;;5046437;28;42911;-83
2023/06/11 08:57:30;;;;;;;;;;;25.10;55.90;;;;;;5044740;28;43075;-83
2023/06/11 08:59:56;;;;;;;;;;;25.10;56.20;;;;;;5046306;28;42990;-83
2023/06/11 09:02:22;;;;;;;;;;;25.10;56.30;;;;;;5046020;28;42963;-83
2023/06/11 09:04:47;;;;;;;;;;;25.10;55.80;;;;;;5036083;28;42899;-87
2023/06/11 09:07:22;;;;;;;;;;;25.10;55.60;;;;;;5046509;28;43568;-84
2023/06/11 09:09:51;;;;;;;;;;;25.00;55.30;;;;;;5047276;28;43620;-83
2023/06/11 09:12:17;;;;;;;;;;;25.10;55.30;;;;;;5046557;28;42989;-83
2023/06/11 09:14:51;;;;;;;;;;;25.10;55.30;;;;;;5029250;28;44513;-87
2023/06/11 09:17:16;;;;;;;;;;;25.10;55.20;;;;;;5028847;28;43006;-82
2023/06/11 09:19:42;;;;;;;;;;;25.10;55.10;;;;;;5046194;28;42915;-83
2023/06/11 09:22:08;;;;;;;;;;;25.10;55.50;;;;;;5045714;28;43112;-83
2023/06/11 09:24:34;;;;;;;;;;;25.10;55.00;;;;;;5044534;28;43101;-83
2023/06/11 09:27:00;;;;;;;;;;;25.10;55.50;;;;;;5044763;28;42939;-86
2023/06/11 09:29:27;;;;;;;;;;;25.10;55.50;;;;;;5027497;28;45676;-82
2023/06/11 09:32:03;;;;;;;;;;;25.10;54.90;;;;;;5044964;28;43030;-83
2023/06/11 09:34:33;;;;;;;;;;;25.10;54.90;;;;;;5020651;28;43555;-84
2023/06/11 09:37:00;;;;;;;;;;;25.10;54.80;;;;;;5046392;28;43067;-84
2023/06/11 09:39:25;;;;;;;;;;;25.10;54.80;;;;;;5026651;28;44287;-87
2023/06/11 09:41:51;;;;;;;;;;;25.10;56.10;;;;;;5025631;28;42979;-83
2023/06/11 09:44:17;;;;;;;;;;;25.10;54.80;;;;;;5045897;28;43724;-83
2023/06/11 09:46:46;;;;;;;;;;;25.10;54.80;;;;;;5045678;28;42959;-82
2023/06/11 09:49:12;;;;;;;;;;;25.10;54.70;;;;;;5045869;28;43046;-85
2023/06/11 09:51:38;;;;;;;;;;;25.10;54.70;;;;;;5045179;28;42957;-87
2023/06/11 09:54:04;;;;;;;;;;;25.10;55.30;;;;;;5026650;28;44279;-83
2023/06/11 09:56:30;;;;;;;;;;;25.10;55.40;;;;;;5045844;28;43038;-83
2023/06/11 09:58:56;;;;;;;;;;;25.10;54.60;;;;;;5032157;28;42962;-86
2023/06/11 10:01:23;;;;;;;;;;;25.10;55.10;;;;;;5046151;28;42913;-82
2023/06/11 10:03:49;;;;;;;;;;;25.10;55.00;;;;;;5045725;28;43130;-86
2023/06/11 10:06:18;;;;;;;;;;;25.20;54.50;;;;;;5045562;28;42970;-86
2023/06/11 10:08:45;;;;;;;;;;;25.10;55.00;;;;;;5045629;28;43514;-84
2023/06/11 10:11:11;;;;;;;;;;;25.10;54.50;;;;;;5045481;28;42903;-84
2023/06/11 10:13:37;;;;;;;;;;;25.10;54.40;;;;;;5032424;28;43714;-83
2023/06/11 10:16:06;;;;;;;;;;;25.20;54.80;;;;;;5026441;28;42969;-82
2023/06/11 10:18:32;;;;;;;;;;;25.10;54.70;;;;;;5044995;28;43059;-83
2023/06/11 10:20:58;;;;;;;;;;;25.10;54.10;;;;;;5044717;28;42920;-84
2023/06/11 10:23:34;;;;;;;;;;;25.10;54.60;;;;;;5045348;28;43160;-81
2023/06/11 10:25:59;;;;;;;;;;;25.10;54.00;;;;;;5044955;28;42847;-82
2023/06/11 10:28:38;;;;;;;;;;;25.20;54.00;;;;;;5043515;28;43419;-85
2023/06/11 10:31:03;;;;;;;;;;;25.20;54.00;;;;;;5044302;28;43027;-84
2023/06/11 10:33:45;;;;;;;;;;;25.20;54.00;;;;;;5044930;28;43625;-83
2023/06/11 10:36:22;;;;;;;;;;;25.20;54.00;;;;;;5044956;28;43088;-86
2023/06/11 10:38:48;;;;;;;;;;;25.20;54.40;;;;;;5034366;28;43647;-81
2023/06/11 10:41:13;;;;;;;;;;;25.20;54.00;;;;;;5043352;28;42989;-82
2023/06/11 10:43:40;;;;;;;;;;;25.10;54.40;;;;;;5044789;28;43347;-84
2023/06/11 10:46:12;;;;;;;;;;;25.20;53.90;;;;;;5043798;28;43020;-84
2023/06/11 10:48:48;;;;;;;;;;;25.20;53.90;;;;;;5044774;28;43613;-83
2023/06/11 10:51:13;;;;;;;;;;;25.20;53.90;;;;;;5044573;28;42975;-84
2023/06/11 10:53:40;;;;;;;;;;;25.20;53.90;;;;;;5044844;28;43403;-86
2023/06/11 10:56:06;;;;;;;;;;;25.10;53.80;;;;;;5043676;28;42953;-82
2023/06/11 10:58:32;;;;;;;;;;;25.20;53.80;;;;;;5042649;28;43594;-83
2023/06/11 11:00:58;;;;;;;;;;;25.20;54.30;;;;;;5024983;28;43109;-82
2023/06/11 11:03:26;;;;;;;;;;;25.20;54.00;;;;;;5024950;28;44447;-83
2023/06/11 11:05:52;;;;;;;;;;;25.20;54.00;;;;;;5044545;28;42927;-83
2023/06/11 11:08:18;;;;;;;;;;;25.20;53.60;;;;;;5043641;28;43078;-82
2023/06/11 11:10:44;;;;;;;;;;;25.20;54.10;;;;;;5043852;28;42954;-86
2023/06/11 11:13:10;;;;;;;;;;;25.30;54.10;;;;;;5025785;28;44036;-83
2023/06/11 11:15:36;;;;;;;;;;;25.30;53.70;;;;;;5044017;28;42943;-83
2023/06/11 11:18:02;;;;;;;;;;;25.20;53.60;;;;;;5043398;28;43602;-82
2023/06/11 11:20:38;;;;;;;;;;;25.10;53.40;;;;;;5121113;27;42911;-83
2023/06/11 11:23:05;;;;;;;;;;;25.30;53.40;;;;;;5121479;27;42944;-84
2023/06/11 11:25:32;;;;;;;;;;;25.30;53.30;;;;;;5120749;27;43042;-83
2023/06/11 11:27:58;;;;;;;;;;;25.30;53.20;;;;;;5120601;27;43418;-83
2023/06/11 11:30:24;;;;;;;;;;;25.20;53.60;;;;;;5120987;27;43065;-87
2023/06/11 11:32:51;;;;;;;;;;;25.20;53.60;;;;;;5120295;27;44527;-84
2023/06/11 11:35:17;;;;;;;;;;;25.20;53.50;;;;;;5108199;27;42932;-83
2023/06/11 11:37:45;;;;;;;;;;;25.20;53.10;;;;;;5121108;27;43609;-83
2023/06/11 11:40:11;;;;;;;;;;;25.30;53.30;;;;;;5107092;27;42948;-83
2023/06/11 11:42:45;;;;;;;;;;;25.30;53.40;;;;;;5108084;27;42935;-82
2023/06/11 11:45:11;;;;;;;;;;;25.30;53.90;;;;;;5089087;27;42840;-82
2023/06/11 11:47:37;;;;;;;;;;;25.30;53.50;;;;;;5101041;27;43024;-83
2023/06/11 11:50:17;;;;;;;;;;;25.30;53.60;;;;;;5101179;27;43112;-83
2023/06/11 11:52:45;;;;;;;;;;;25.30;53.70;;;;;;5101180;27;42908;-83
2023/06/11 11:55:11;;;;;;;;;;;25.20;53.70;;;;;;5100532;27;42976;-83
2023/06/11 11:57:40;;;;;;;;;;;25.30;53.80;;;;;;5099038;27;43272;-83
2023/06/11 12:00:06;;;;;;;;;;;25.30;53.70;;;;;;5097341;27;43257;-87
2023/06/11 12:02:32;;;;;;;;;;;25.30;53.70;;;;;;5092862;27;43542;-85
2023/06/11 12:04:57;;;;;;;;;;;25.30;54.20;;;;;;5104466;27;42959;-83
2023/06/11 12:07:23;;;;;;;;;;;25.30;53.70;;;;;;5103930;27;43234;-84
2023/06/11 12:09:49;;;;;;;;;;;25.30;53.70;;;;;;5094898;27;43008;-87
2023/06/11 12:12:14;;;;;;;;;;;25.30;53.50;;;;;;5105485;27;43841;-85
2023/06/11 12:14:40;;;;;;;;;;;25.30;53.40;;;;;;5104881;27;43007;-82
2023/06/11 12:17:10;;;;;;;;;;;25.30;53.40;;;;;;5108842;27;43729;-81
2023/06/11 12:19:36;;;;;;;;;;;25.30;53.20;;;;;;5095451;27;42975;-82
2023/06/11 12:22:03;;;;;;;;;;;25.30;53.20;;;;;;5104680;27;44084;-82
2023/06/11 12:24:29;;;;;;;;;;;25.30;53.10;;;;;;5103263;27;43050;-82
2023/06/11 12:26:54;;;;;;;;;;;25.30;52.90;;;;;;5104235;27;42983;-85
2023/06/11 12:29:20;;;;;;;;;;;25.30;52.80;;;;;;5104625;27;42988;-82
2023/06/11 12:31:48;;;;;;;;;;;25.30;52.80;;;;;;5091597;27;42964;-82
2023/06/11 12:34:15;;;;;;;;;;;25.30;52.70;;;;;;5091392;27;43089;-82
2023/06/11 12:36:41;;;;;;;;;;;25.30;52.70;;;;;;5094125;27;43064;-83
2023/06/11 12:39:07;;;;;;;;;;;25.30;52.90;;;;;;5090814;27;43056;-82
2023/06/11 12:41:33;;;;;;;;;;;25.30;52.90;;;;;;5088865;27;44628;-83
2023/06/11 12:43:58;;;;;;;;;;;25.30;52.90;;;;;;5098804;27;42883;-83
2023/06/11 12:46:26;;;;;;;;;;;25.30;52.90;;;;;;5102044;27;43347;-84
2023/06/11 12:48:55;;;;;;;;;;;25.30;52.90;;;;;;5088892;27;43130;-83
2023/06/11 12:51:23;;;;;;;;;;;25.40;53.00;;;;;;5083563;27;44453;-83
2023/06/11 12:53:55;;;;;;;;;;;25.30;53.00;;;;;;5100032;27;43127;-82
2023/06/11 12:56:29;;;;;;;;;;;25.30;52.80;;;;;;5088693;27;44470;-82
2023/06/11 12:58:58;;;;;;;;;;;25.30;52.80;;;;;;5088258;27;42804;-82
2023/06/11 13:01:23;;;;;;;;;;;25.30;52.80;;;;;;5095857;27;43948;-82
2023/06/11 13:03:49;;;;;;;;;;;25.30;52.70;;;;;;5087952;27;42890;-83
2023/06/11 13:06:15;;;;;;;;;;;25.30;52.70;;;;;;5094786;27;42929;-82
2023/06/11 13:08:40;;;;;;;;;;;25.30;52.60;;;;;;5095458;27;43273;-83
2023/06/11 13:11:06;;;;;;;;;;;25.30;52.40;;;;;;5102654;27;42941;-87
2023/06/11 13:13:31;;;;;;;;;;;25.30;52.40;;;;;;5085756;27;43043;-83
2023/06/11 13:16:31;;;;;;;;;;;25.30;51.70;;;;;;5098541;27;43304;-81
2023/06/11 13:18:59;;;;;;;;;;;25.30;51.80;;;;;;5087079;27;43016;-82
2023/06/11 13:21:26;;;;;;;;;;;25.30;51.70;;;;;;5095523;27;44517;-82
2023/06/11 13:23:54;;;;;;;;;;;25.30;51.70;;;;;;5095708;27;43200;-81
2023/06/11 13:26:29;;;;;;;;;;;25.30;51.70;;;;;;5097541;27;42936;-86
2023/06/11 13:28:55;;;;;;;;;;;25.30;51.70;;;;;;5099525;27;43534;-82
2023/06/11 13:31:21;;;;;;;;;;;25.30;51.50;;;;;;5095888;27;44755;-82
2023/06/11 13:33:46;;;;;;;;;;;25.30;52.30;;;;;;5100136;27;42904;-82
2023/06/11 13:36:12;;;;;;;;;;;25.30;51.60;;;;;;5093680;27;44117;-82
2023/06/11 13:38:40;;;;;;;;;;;25.30;51.50;;;;;;5099047;27;43157;-82
2023/06/11 13:41:06;;;;;;;;;;;25.30;51.40;;;;;;5097455;27;44717;-82
2023/06/11 13:43:32;;;;;;;;;;;25.30;51.40;;;;;;5090792;27;42989;-83
2023/06/11 13:45:58;;;;;;;;;;;25.30;51.30;;;;;;5096155;27;44238;-83
2023/06/11 13:48:33;;;;;;;;;;;25.30;51.50;;;;;;5091317;27;43028;-83
2023/06/11 13:50:58;;;;;;;;;;;25.30;51.60;;;;;;5089458;27;42944;-82
2023/06/11 13:53:24;;;;;;;;;;;25.30;51.60;;;;;;5101743;27;42960;-85
2023/06/11 13:55:50;;;;;;;;;;;25.30;51.50;;;;;;5095429;27;43085;-82
2023/06/11 13:58:15;;;;;;;;;;;25.30;51.50;;;;;;5092649;27;42957;-83
2023/06/11 14:00:42;;;;;;;;;;;25.30;51.30;;;;;;5085670;27;42976;-84
2023/06/11 14:03:07;;;;;;;;;;;25.30;51.20;;;;;;5095020;27;42998;-81
2023/06/11 14:05:33;;;;;;;;;;;25.30;51.20;;;;;;5087563;27;43043;-85
2023/06/11 14:07:58;;;;;;;;;;;25.30;51.70;;;;;;5093734;27;43006;-83
2023/06/11 14:10:25;;;;;;;;;;;25.30;51.20;;;;;;5097031;27;43458;-81
2023/06/11 14:12:50;;;;;;;;;;;25.30;51.10;;;;;;5092246;27;43061;-87
2023/06/11 14:15:19;;;;;;;;;;;25.30;51.30;;;;;;5090178;27;43751;-84